createdAt,value
2023-10-10T00:02:19.945Z,11.83
2023-10-10T00:04:49.083Z,10.07
2023-10-10T00:07:17.092Z,7.67
2023-10-10T00:09:45.818Z,5.13
2023-10-10T00:12:27.789Z,5.80
2023-10-10T00:14:58.355Z,5.73
2023-10-10T00:17:35.959Z,10.10
2023-10-10T00:20:17.493Z,5.60
2023-10-10T00:22:48.830Z,5.67
2023-10-10T00:25:18.200Z,7.60
2023-10-10T00:27:47.902Z,9.90
2023-10-10T00:30:15.725Z,15.87
2023-10-10T00:32:47.050Z,8.50
2023-10-10T00:35:18.522Z,10.93
2023-10-10T00:37:46.895Z,12.17
2023-10-10T00:40:26.420Z,9.33
2023-10-10T00:42:54.988Z,16.17
2023-10-10T00:45:24.829Z,7.30
2023-10-10T00:47:54.524Z,11.30
2023-10-10T00:50:26.467Z,10.63
2023-10-10T00:52:54.683Z,9.23
2023-10-10T00:55:23.521Z,8.07
2023-10-10T00:57:54.194Z,8.03
2023-10-10T01:00:26.284Z,11.40
2023-10-10T01:02:57.616Z,11.50
2023-10-10T01:05:40.840Z,11.87
2023-10-10T01:08:09.071Z,15.13
2023-10-10T01:10:48.584Z,13.60
2023-10-10T01:13:16.704Z,12.87
2023-10-10T01:15:45.285Z,22.33
2023-10-10T01:18:16.687Z,15.30
2023-10-10T01:20:47.490Z,19.93
2023-10-10T01:23:16.508Z,19.17
2023-10-10T01:25:46.845Z,20.97
2023-10-10T01:28:24.334Z,22.67
2023-10-10T01:30:55.777Z,23.73
2023-10-10T01:33:29.927Z,13.90
2023-10-10T01:35:59.294Z,28.50
2023-10-10T01:38:58.027Z,17.63
2023-10-10T01:41:32.961Z,22.03
2023-10-10T01:44:14.462Z,24.33
2023-10-10T01:46:42.835Z,27.23
2023-10-10T01:49:15.222Z,23.33
2023-10-10T01:51:44.348Z,25.40
2023-10-10T01:54:35.402Z,17.63
2023-10-10T01:57:09.217Z,23.33
2023-10-10T01:59:42.769Z,28.07
2023-10-10T02:02:12.205Z,37.40
2023-10-10T02:04:43.619Z,25.50
2023-10-10T02:07:24.586Z,33.47
2023-10-10T02:10:16.034Z,39.40
2023-10-10T02:12:47.442Z,29.97
2023-10-10T02:15:20.169Z,24.90
2023-10-10T02:17:56.489Z,27.30
2023-10-10T02:20:27.398Z,40.17
2023-10-10T02:23:03.089Z,26.50
2023-10-10T02:25:37.023Z,38.90
2023-10-10T02:28:21.404Z,26.97
2023-10-10T02:30:53.751Z,39.07
2023-10-10T02:33:22.811Z,27.17
2023-10-10T02:35:58.032Z,34.90
2023-10-10T02:38:40.830Z,36.00
2023-10-10T02:41:23.503Z,45.60
2023-10-10T02:44:01.833Z,44.90
2023-10-10T02:46:36.183Z,37.13
2023-10-10T02:49:22.880Z,24.33
2023-10-10T02:51:56.203Z,36.10
2023-10-10T02:54:29.847Z,37.73
2023-10-10T02:57:21.761Z,47.00
2023-10-10T02:59:52.807Z,42.00
2023-10-10T03:02:23.919Z,40.93
2023-10-10T03:05:04.097Z,32.73
2023-10-10T03:07:34.370Z,42.13
2023-10-10T03:10:15.141Z,42.03
2023-10-10T03:12:43.450Z,47.13
2023-10-10T03:15:20.990Z,56.83
2023-10-10T03:18:09.833Z,53.00
2023-10-10T03:20:52.584Z,54.03
2023-10-10T03:23:33.775Z,48.60
2023-10-10T03:26:01.414Z,25.10
2023-10-10T03:28:29.411Z,29.17
2023-10-10T03:31:11.838Z,39.00
2023-10-10T03:33:43.469Z,41.17
2023-10-10T03:36:19.334Z,39.00
2023-10-10T03:38:50.733Z,29.23
2023-10-10T03:41:25.182Z,37.30
2023-10-10T03:44:14.022Z,33.93
2023-10-10T03:46:50.334Z,27.70
2023-10-10T03:49:36.942Z,35.87
2023-10-10T03:52:23.132Z,60.00
2023-10-10T03:55:10.292Z,68.83
2023-10-10T03:57:56.735Z,32.53
2023-10-10T04:00:44.189Z,46.27
2023-10-10T04:03:31.322Z,57.00
2023-10-10T04:06:24.295Z,58.07
2023-10-10T04:09:12.042Z,49.43
2023-10-10T04:11:58.352Z,45.97
2023-10-10T04:14:44.900Z,25.87
2023-10-10T04:17:31.198Z,25.93
2023-10-10T04:20:17.519Z,29.83
2023-10-10T04:23:03.754Z,32.23
2023-10-10T04:25:51.702Z,32.23
2023-10-10T04:28:38.301Z,31.67
2023-10-10T04:31:25.164Z,27.60
2023-10-10T04:34:12.229Z,31.97
2023-10-10T04:36:59.261Z,19.70
2023-10-10T04:39:49.057Z,32.37
2023-10-10T04:42:39.731Z,26.13
2023-10-10T04:45:26.253Z,19.67
2023-10-10T04:48:12.879Z,24.80
2023-10-10T04:51:00.353Z,18.27
2023-10-10T04:53:47.242Z,26.60
2023-10-10T04:56:35.667Z,27.73
2023-10-10T04:59:22.123Z,21.67
2023-10-10T05:02:13.320Z,30.20
2023-10-10T05:04:59.491Z,38.73
2023-10-10T05:07:46.416Z,29.43
2023-10-10T05:10:33.347Z,37.70
2023-10-10T05:13:19.729Z,26.93
2023-10-10T05:16:06.806Z,27.00
2023-10-10T05:18:54.107Z,20.67
2023-10-10T05:21:40.509Z,24.43
2023-10-10T05:24:10.235Z,25.63
2023-10-10T05:26:47.560Z,30.00
2023-10-10T05:29:21.184Z,29.10
2023-10-10T05:31:52.309Z,27.87
2023-10-10T05:34:24.302Z,19.63
2023-10-10T05:36:54.124Z,14.70
2023-10-10T05:39:22.465Z,16.63
2023-10-10T05:41:55.231Z,21.90
2023-10-10T05:44:23.085Z,32.17
2023-10-10T05:46:52.074Z,20.43
2023-10-10T05:49:19.607Z,24.77
2023-10-10T05:51:49.710Z,15.53
2023-10-10T05:54:17.525Z,14.60
2023-10-10T05:56:47.776Z,15.87
2023-10-10T05:59:19.112Z,15.83
2023-10-10T06:01:48.494Z,18.83
2023-10-10T06:04:16.851Z,14.07
2023-10-10T06:06:44.701Z,23.63
2023-10-10T06:09:19.821Z,19.97
2023-10-10T06:11:49.023Z,25.67
2023-10-10T06:14:22.418Z,21.73
2023-10-10T06:16:53.460Z,21.97
2023-10-10T06:19:24.284Z,25.60
2023-10-10T06:21:56.940Z,32.23
2023-10-10T06:24:28.023Z,24.77
2023-10-10T06:27:01.314Z,18.57
2023-10-10T06:29:35.464Z,34.40
2023-10-10T06:32:04.451Z,33.10
2023-10-10T06:34:37.815Z,21.83
2023-10-10T06:37:11.424Z,22.17
2023-10-10T06:39:57.961Z,23.90
2023-10-10T06:42:28.919Z,29.60
2023-10-10T06:44:56.544Z,21.80
2023-10-10T06:47:30.447Z,32.63
2023-10-10T06:50:01.028Z,32.23
2023-10-10T06:52:37.638Z,40.43
2023-10-10T06:55:12.171Z,46.80
2023-10-10T06:57:43.571Z,14.20
2023-10-10T07:00:29.641Z,25.07
2023-10-10T07:02:58.283Z,16.93
2023-10-10T07:05:28.261Z,28.20
2023-10-10T07:08:00.143Z,16.33
2023-10-10T07:10:37.166Z,26.63
2023-10-10T07:13:12.488Z,22.77
2023-10-10T07:15:41.807Z,25.20
2023-10-10T07:18:16.520Z,22.90
2023-10-10T07:21:03.923Z,28.23
2023-10-10T07:23:39.283Z,29.00
2023-10-10T07:26:20.355Z,18.40
2023-10-10T07:28:49.535Z,30.13
2023-10-10T07:31:22.206Z,27.23
2023-10-10T07:34:16.366Z,19.40
2023-10-10T07:36:51.498Z,16.40
2023-10-10T07:39:35.244Z,29.83
2023-10-10T07:42:03.564Z,17.83
2023-10-10T07:44:31.641Z,16.73
2023-10-10T07:47:11.127Z,15.70
2023-10-10T07:49:51.382Z,12.20
2023-10-10T07:52:21.366Z,13.87
2023-10-10T07:54:52.777Z,13.57
2023-10-10T07:57:23.982Z,14.70
2023-10-10T07:59:58.284Z,13.27
2023-10-10T08:02:26.931Z,11.23
2023-10-10T08:04:59.039Z,14.57
2023-10-10T08:07:28.261Z,9.90
2023-10-10T08:10:15.235Z,10.83
2023-10-10T08:12:43.970Z,12.47
2023-10-10T08:15:21.463Z,12.17
2023-10-10T08:17:54.738Z,12.30
2023-10-10T08:20:56.665Z,13.07
2023-10-10T08:23:25.920Z,12.03
2023-10-10T08:26:20.212Z,9.77
2023-10-10T08:29:15.303Z,8.70
2023-10-10T08:32:02.326Z,9.00
2023-10-10T08:34:30.072Z,14.13
2023-10-10T08:37:04.438Z,12.03
2023-10-10T08:39:40.258Z,10.50
2023-10-10T08:42:12.262Z,8.37
2023-10-10T08:44:41.238Z,8.40
2023-10-10T08:47:26.704Z,7.93
2023-10-10T08:49:54.677Z,11.00
2023-10-10T08:52:48.165Z,9.80
2023-10-10T08:55:19.326Z,8.33
2023-10-10T08:57:47.358Z,11.77
2023-10-10T09:00:18.742Z,8.90
2023-10-10T09:02:46.816Z,7.30
2023-10-10T09:05:15.805Z,6.40
2023-10-10T09:07:47.316Z,7.40
2023-10-10T09:10:15.460Z,5.50
2023-10-10T09:12:59.587Z,6.63
2023-10-10T09:15:28.567Z,6.40
2023-10-10T09:18:17.290Z,6.87
2023-10-10T09:20:49.024Z,7.43
2023-10-10T09:23:27.189Z,5.00
2023-10-10T09:26:25.428Z,4.37
2023-10-10T09:28:57.188Z,5.27
2023-10-10T09:31:28.068Z,4.13
2023-10-10T09:33:56.096Z,7.93
2023-10-10T09:36:29.017Z,5.70
2023-10-10T09:39:10.155Z,5.90
2023-10-10T09:41:58.573Z,4.13
2023-10-10T09:44:51.112Z,3.33
2023-10-10T09:47:40.792Z,3.73
2023-10-10T09:50:22.232Z,4.20
2023-10-10T09:53:00.590Z,3.90
2023-10-10T09:55:33.332Z,3.80
2023-10-10T09:58:03.011Z,5.57
2023-10-10T10:00:38.437Z,4.20
2023-10-10T10:03:28.401Z,3.70
2023-10-10T10:06:07.805Z,4.23
2023-10-10T10:08:41.425Z,4.07
2023-10-10T10:11:13.777Z,5.63
2023-10-10T10:14:21.876Z,4.73
2023-10-10T10:16:53.594Z,5.03
2023-10-10T10:19:28.039Z,5.40
2023-10-10T10:22:09.395Z,7.40
2023-10-10T10:24:47.184Z,5.10
2023-10-10T10:27:26.225Z,5.20
2023-10-10T10:29:57.608Z,4.30
2023-10-10T10:32:25.820Z,4.17
2023-10-10T10:34:59.330Z,5.17
2023-10-10T10:37:29.393Z,3.63
2023-10-10T10:40:13.413Z,3.83
2023-10-10T10:43:04.761Z,4.37
2023-10-10T10:45:42.270Z,3.40
2023-10-10T10:48:18.358Z,3.47
2023-10-10T10:50:47.585Z,2.90
2023-10-10T10:53:31.985Z,3.43
2023-10-10T10:56:18.012Z,2.37
2023-10-10T10:58:55.188Z,3.57
2023-10-10T11:01:23.489Z,4.00
2023-10-10T11:03:55.306Z,2.63
2023-10-10T11:06:26.047Z,3.17
2023-10-10T11:08:58.098Z,3.63
2023-10-10T11:11:33.868Z,2.70
2023-10-10T11:14:11.096Z,2.70
2023-10-10T11:16:46.212Z,5.10
2023-10-10T11:19:23.463Z,2.13
2023-10-10T11:21:55.222Z,4.83
2023-10-10T11:24:27.508Z,3.87
2023-10-10T11:27:07.068Z,3.10
2023-10-10T11:29:44.181Z,2.57
2023-10-10T11:32:13.393Z,2.40
2023-10-10T11:34:46.344Z,3.90
2023-10-10T11:37:16.202Z,3.87
2023-10-10T11:39:58.310Z,2.77
2023-10-10T11:42:30.859Z,2.53
2023-10-10T11:45:06.120Z,4.20
2023-10-10T11:47:44.103Z,3.27
2023-10-10T11:50:17.069Z,3.37
2023-10-10T11:52:55.159Z,2.50
2023-10-10T11:55:22.912Z,2.40
2023-10-10T11:57:50.912Z,3.13
2023-10-10T12:00:27.928Z,2.47
2023-10-10T12:02:58.768Z,4.53
2023-10-10T12:05:29.782Z,2.60
2023-10-10T12:08:00.323Z,3.00
2023-10-10T12:10:50.325Z,3.03
2023-10-10T12:13:34.518Z,2.27
2023-10-10T12:16:11.766Z,2.60
2023-10-10T12:18:53.746Z,3.50
2023-10-10T12:21:48.328Z,5.17
2023-10-10T12:24:16.246Z,4.70
2023-10-10T12:26:45.383Z,5.70
2023-10-10T12:29:14.762Z,3.00
2023-10-10T12:31:46.545Z,3.30
2023-10-10T12:34:20.347Z,5.17
2023-10-10T12:36:50.250Z,3.77
2023-10-10T12:39:20.745Z,3.77
2023-10-10T12:41:48.502Z,4.70
2023-10-10T12:44:24.502Z,4.60
2023-10-10T12:46:56.044Z,4.10
2023-10-10T12:49:29.603Z,4.37
2023-10-10T12:51:58.510Z,4.13
2023-10-10T12:54:36.047Z,4.87
2023-10-10T12:57:14.746Z,4.17
2023-10-10T12:59:47.615Z,6.30
2023-10-10T13:02:41.755Z,4.43
2023-10-10T13:05:12.394Z,3.60
2023-10-10T13:07:42.530Z,4.70
2023-10-10T13:10:14.294Z,4.17
2023-10-10T13:12:52.748Z,6.00
2023-10-10T13:15:30.834Z,5.00
2023-10-10T13:18:25.766Z,4.77
2023-10-10T13:20:55.245Z,4.37
2023-10-10T13:23:28.092Z,6.53
2023-10-10T13:25:55.828Z,4.73
2023-10-10T13:28:23.426Z,5.67
2023-10-10T13:30:51.639Z,7.10
2023-10-10T13:33:21.371Z,7.30
2023-10-10T13:35:50.036Z,8.40
2023-10-10T13:38:18.036Z,8.60
2023-10-10T13:40:46.918Z,9.10
2023-10-10T13:43:20.645Z,9.10
2023-10-10T13:45:51.586Z,8.43
2023-10-10T13:48:19.890Z,12.07
2023-10-10T13:50:52.281Z,12.20
2023-10-10T13:53:21.283Z,10.93
2023-10-10T13:55:49.000Z,12.03
2023-10-10T13:58:19.424Z,10.53
2023-10-10T14:00:54.008Z,11.87
2023-10-10T14:03:30.879Z,12.23
2023-10-10T14:06:05.590Z,10.63
2023-10-10T14:08:34.108Z,10.57
2023-10-10T14:11:02.097Z,10.53
2023-10-10T14:13:30.097Z,9.23
2023-10-10T14:16:02.256Z,11.00
2023-10-10T14:18:43.524Z,10.83
2023-10-10T14:21:12.992Z,10.57
2023-10-10T14:23:41.138Z,11.80
2023-10-10T14:26:19.958Z,11.70
2023-10-10T14:28:51.859Z,14.80
2023-10-10T14:31:22.177Z,12.43
2023-10-10T14:33:51.065Z,14.70
2023-10-10T14:36:20.484Z,16.17
2023-10-10T14:38:51.389Z,16.20
2023-10-10T14:41:21.101Z,15.70
2023-10-10T14:43:55.750Z,15.13
2023-10-10T14:46:29.021Z,15.63
2023-10-10T14:49:15.974Z,16.23
2023-10-10T14:52:09.245Z,16.30
2023-10-10T14:54:49.959Z,18.83
2023-10-10T14:57:25.692Z,17.70
2023-10-10T14:59:57.115Z,18.40
2023-10-10T15:02:28.093Z,19.10
2023-10-10T15:04:56.297Z,20.17
2023-10-10T15:07:23.883Z,20.03
2023-10-10T15:09:51.570Z,20.87
2023-10-10T15:12:20.118Z,21.60
2023-10-10T15:14:48.318Z,21.50
2023-10-10T15:17:16.099Z,22.57
2023-10-10T15:19:45.403Z,22.67
2023-10-10T15:22:17.041Z,21.53
2023-10-10T15:24:51.053Z,27.83
2023-10-10T15:27:20.326Z,23.07
2023-10-10T15:29:48.391Z,24.10
2023-10-10T15:32:20.450Z,23.90
2023-10-10T15:34:48.091Z,23.47
2023-10-10T15:37:20.622Z,24.63
2023-10-10T15:39:49.151Z,23.63
2023-10-10T15:42:19.981Z,22.67
2023-10-10T15:44:47.655Z,28.67
2023-10-10T15:47:16.676Z,23.83
2023-10-10T15:49:44.450Z,25.10
2023-10-10T15:52:13.897Z,24.87
2023-10-10T15:55:31.720Z,25.47
2023-10-10T15:58:00.766Z,24.73
2023-10-10T16:00:34.994Z,25.13
2023-10-10T16:03:09.032Z,23.97
2023-10-10T16:05:43.160Z,26.20
2023-10-10T16:09:01.704Z,28.33
2023-10-10T16:11:33.841Z,28.67
2023-10-10T16:14:13.225Z,25.60
2023-10-10T16:16:48.966Z,27.97
2023-10-10T16:19:30.927Z,27.30
2023-10-10T16:22:03.632Z,30.20
2023-10-10T16:24:33.638Z,27.30
2023-10-10T16:27:02.380Z,25.40
2023-10-10T16:29:37.055Z,26.83
2023-10-10T16:32:16.390Z,28.20
2023-10-10T16:34:45.961Z,26.83
2023-10-10T16:37:19.507Z,28.57
2023-10-10T16:39:47.873Z,27.30
2023-10-10T16:42:20.484Z,27.37
2023-10-10T16:44:48.652Z,25.50
2023-10-10T16:47:17.909Z,32.67
2023-10-10T16:49:50.611Z,28.03
2023-10-10T16:52:19.587Z,27.70
2023-10-10T16:54:51.566Z,27.90
2023-10-10T16:57:21.561Z,25.17
2023-10-10T17:00:14.770Z,23.30
2023-10-10T17:02:43.237Z,23.37
2023-10-10T17:05:14.593Z,21.83
2023-10-10T17:07:42.316Z,21.50
2023-10-10T17:10:15.185Z,23.70
2023-10-10T17:12:44.009Z,24.17
2023-10-10T17:15:19.844Z,22.10
2023-10-10T17:17:49.445Z,25.47
2023-10-10T17:20:18.198Z,25.43
2023-10-10T17:22:50.515Z,22.70
2023-10-10T17:25:19.850Z,23.67
2023-10-10T17:27:52.891Z,22.60
2023-10-10T17:30:22.574Z,22.63
2023-10-10T17:32:50.253Z,22.60
2023-10-10T17:35:19.685Z,20.37
2023-10-10T17:37:47.441Z,22.37
2023-10-10T17:40:17.693Z,24.60
2023-10-10T17:42:47.345Z,22.03
2023-10-10T17:45:15.453Z,23.77
2023-10-10T17:47:44.601Z,22.20
2023-10-10T17:50:12.585Z,20.27
2023-10-10T17:52:43.663Z,20.67
2023-10-10T17:55:14.100Z,22.13
2023-10-10T17:57:44.537Z,23.67
2023-10-10T18:00:14.751Z,20.67
2023-10-10T18:02:46.155Z,22.10
2023-10-10T18:05:15.789Z,21.00
2023-10-10T18:07:44.591Z,22.33
2023-10-10T18:10:13.960Z,24.13
2023-10-10T18:12:42.307Z,21.10
2023-10-10T18:15:12.451Z,19.10
2023-10-10T18:17:41.267Z,17.80
2023-10-10T18:20:15.773Z,18.53
2023-10-10T18:22:47.805Z,18.50
2023-10-10T18:25:15.590Z,15.17
2023-10-10T18:27:45.969Z,19.00
2023-10-10T18:30:14.515Z,15.33
2023-10-10T18:32:43.742Z,14.53
2023-10-10T18:35:17.245Z,16.37
2023-10-10T18:38:11.610Z,17.97
2023-10-10T18:40:45.380Z,15.20
2023-10-10T18:43:15.436Z,15.60
2023-10-10T18:45:45.530Z,13.83
2023-10-10T18:48:17.867Z,13.10
2023-10-10T18:50:45.862Z,18.63
2023-10-10T18:53:14.745Z,13.80
2023-10-10T18:55:42.521Z,12.93
2023-10-10T18:58:13.093Z,9.83
2023-10-10T19:00:41.444Z,11.70
2023-10-10T19:03:10.297Z,12.00
2023-10-10T19:05:41.158Z,10.53
2023-10-10T19:08:09.829Z,11.80
2023-10-10T19:10:39.231Z,11.80
2023-10-10T19:13:07.520Z,10.30
2023-10-10T19:15:39.219Z,10.90
2023-10-10T19:18:07.287Z,12.50
2023-10-10T19:20:37.648Z,10.93
2023-10-10T19:23:09.894Z,13.23
2023-10-10T19:25:46.783Z,11.00
2023-10-10T19:28:17.889Z,8.90
2023-10-10T19:30:51.697Z,12.47
2023-10-10T19:33:23.346Z,8.50
2023-10-10T19:35:51.633Z,9.77
2023-10-10T19:38:20.689Z,10.37
2023-10-10T19:40:49.482Z,13.77
2023-10-10T19:43:17.866Z,10.23
2023-10-10T19:45:46.594Z,9.97
2023-10-10T19:48:18.902Z,8.03
2023-10-10T19:50:49.401Z,11.87
2023-10-10T19:53:17.967Z,13.93
2023-10-10T19:55:49.880Z,8.97
2023-10-10T19:58:21.812Z,9.73
2023-10-10T20:00:51.873Z,11.13
2023-10-10T20:03:21.601Z,8.13
2023-10-10T20:05:49.336Z,10.20
2023-10-10T20:08:21.426Z,13.67
2023-10-10T20:10:50.153Z,9.43
2023-10-10T20:13:22.124Z,13.50
2023-10-10T20:15:53.485Z,12.90
2023-10-10T20:18:21.564Z,9.57
2023-10-10T20:20:49.577Z,12.47
2023-10-10T20:23:17.519Z,9.17
2023-10-10T20:25:47.268Z,11.57
2023-10-10T20:28:14.939Z,11.00
2023-10-10T20:30:46.358Z,9.70
2023-10-10T20:33:18.519Z,9.13
2023-10-10T20:35:48.612Z,10.70
2023-10-10T20:38:20.180Z,9.37
2023-10-10T20:40:51.939Z,8.37
2023-10-10T20:43:25.562Z,9.30
2023-10-10T20:45:54.104Z,9.10
2023-10-10T20:48:23.178Z,10.40
2023-10-10T20:50:51.452Z,10.30
2023-10-10T20:53:23.618Z,12.03
2023-10-10T20:55:51.372Z,12.53
2023-10-10T20:58:19.739Z,10.67
2023-10-10T21:00:49.983Z,11.70
2023-10-10T21:03:20.137Z,9.17
2023-10-10T21:05:50.714Z,9.07
2023-10-10T21:08:19.265Z,9.23
2023-10-10T21:10:51.265Z,12.77
2023-10-10T21:13:19.932Z,10.40
2023-10-10T21:15:50.422Z,9.10
2023-10-10T21:18:19.592Z,10.20
2023-10-10T21:21:02.329Z,7.93
2023-10-10T21:23:32.339Z,13.17
2023-10-10T21:26:00.158Z,10.70
2023-10-10T21:28:27.850Z,9.07
2023-10-10T21:30:55.493Z,14.23
2023-10-10T21:33:24.378Z,9.93
2023-10-10T21:35:53.073Z,8.40
2023-10-10T21:38:22.957Z,9.50
2023-10-10T21:40:50.638Z,9.00
2023-10-10T21:43:19.022Z,11.23
2023-10-10T21:45:46.855Z,11.03
2023-10-10T21:48:14.683Z,7.83
2023-10-10T21:50:42.711Z,10.67
2023-10-10T21:56:06.078Z,8.03
2023-10-10T21:58:33.751Z,13.73
2023-10-10T22:01:03.610Z,8.40
2023-10-10T22:03:31.333Z,9.70
2023-10-10T22:05:59.037Z,8.63
2023-10-10T22:08:27.134Z,8.60
2023-10-10T22:11:01.910Z,10.30
2023-10-10T22:13:30.801Z,9.30
2023-10-10T22:15:59.631Z,11.37
2023-10-10T22:18:31.085Z,13.77
2023-10-10T22:21:00.601Z,8.77
2023-10-10T22:23:28.262Z,10.60
2023-10-10T22:26:02.834Z,9.20
2023-10-10T22:28:31.784Z,10.83
2023-10-10T22:31:00.422Z,9.67
2023-10-10T22:33:28.941Z,8.50
2023-10-10T22:35:56.967Z,9.17
2023-10-10T22:38:25.939Z,11.57
2023-10-10T22:40:55.088Z,8.50
2023-10-10T22:43:22.955Z,11.73
2023-10-10T22:45:52.179Z,8.93
2023-10-10T22:48:19.952Z,10.40
2023-10-10T22:50:48.212Z,10.10
2023-10-10T22:53:17.602Z,10.33
2023-10-10T22:55:46.339Z,9.40
2023-10-10T22:58:16.341Z,8.93
2023-10-10T23:00:48.598Z,9.03
2023-10-10T23:03:20.015Z,10.60
2023-10-10T23:05:49.442Z,10.03
2023-10-10T23:08:19.146Z,9.40
2023-10-10T23:10:49.274Z,9.63
2023-10-10T23:13:17.370Z,10.20
2023-10-10T23:16:12.528Z,7.63
2023-10-10T23:18:40.198Z,11.70
2023-10-10T23:21:09.154Z,9.23
2023-10-10T23:23:36.834Z,9.00
2023-10-10T23:26:05.914Z,12.93
2023-10-10T23:28:35.708Z,9.10
2023-10-10T23:31:08.258Z,10.10
2023-10-10T23:33:36.140Z,9.70
2023-10-10T23:36:07.582Z,9.63
2023-10-10T23:38:41.464Z,8.77
2023-10-10T23:41:15.139Z,8.50
2023-10-10T23:44:11.546Z,10.47
2023-10-10T23:46:47.077Z,11.53
2023-10-10T23:49:15.481Z,10.10
2023-10-10T23:51:45.517Z,10.50
2023-10-10T23:54:14.816Z,10.03
2023-10-10T23:56:50.165Z,9.00
2023-10-10T23:59:21.463Z,7.67
